Portada
METAR-TAF:

METAR-TAF

Aeroports :

Tokushima, Japó

latitud: 34-08N, longitud: 134-37E, altitud: 8 m

Observació

L'informe es va fer fa 51 minuts, a les 09:00 UTC
Vent 5 kt del Nord-Oest
Temperatura 11°C
Humitat 87%
Pressió 1013 hPa
Visibilitat 10 km o més
Escasses núvols a una alçada de 2000 ft
Cel ennuvolat

METAR: RJOS 190900Z 31005KT 9999 FEW020 BKN/// 11/09 Q1013

Hora: 18:51 (09:51 UTC)


TAF: manca

Observacions i pronòstics meteorològics de més de 4000 aeroports (METAR i TAF).

Les estacions disponibles són els punts grocs i vermells al mapa.

Posi el ratolí al punt desitjat per veure el nom de l'estació.

Feu clic per veure les observacions i els pronòstics meteorològics.

Per canviar el mapa: feu clic els botons verds amb una creu de color negre per apropar; al botó verd amb un guió per allunyar la imatge; o en les fletxes verdes per a mapes adjacents.


METAR-TAF: